Etusivu
METAR-TAF:

METAR-TAF

Lentoasemat :

Chugiak, Alaska, Yhdysvallat

Leveyspiiri: 61-25N, Pituuspiiri: 149-31W, korkeus merenpinnasta: 29 m

Tämänhetkinen sää

Tämä raportti tehtiin 53 minuuttia sitten, kello 02.56 UTC
tyyntä
Lämpötila -1°C
Kosteus 100%
Ilmanpaine 994 hPa
Näkyvyys: 0.8 km
Pilvistä 300 ft:n korkeudessa
jäätävää sumua

METAR: PABV 210256Z AUTO 00000KT 1/2SM FZFG OVC003 M01/M01 A2934 RMK AO2 SLP945 60000 T10111011 55002 FZRANO

Aika: 18:49 (03:49 UTC)


TAF: puuttuu

Säähavainnot ja -ennusteet yli 4000 lentoasemalta (METAR- ja TAF-raportit).

Käytössä olevat sääasemat on merkitty karttaan keltaisilla ja punaisilla pisteillä.

Aseta hiiri pisteen päälle nähdäksesi sääaseman nimen.

Klikkaa sitten nähdäksesi säähavainnot ja -ennusteet.

Kartan vaihtaminen: klikkaa mustalla rastilla varustettuja vihreitä pisteitä, niin voit zoomata sisään; viivalla varustettua vihreää pistettä, niin voit zoomata ulos tai vihreitä nuolia, niin pääset viereisille kartoille.


METAR-TAF: